Time;durP1;ratioP1;P1;durP2;ratioP2;P2;SDS_P1;SDS_P2;PMS_P1;PMS_P2;Temp;Humidity;BMP_temperature;BMP_pressure;BME280_temperature;BME280_humidity;BME280_pressure;Samples;Min_cycle;Max_cycle;Signal;HPM_P1;HPM_P2
2021/11/12 00:02:09;;;;;;;;;;;1.60;99.90;;;;;;8359348;28;19904;-62
2021/11/12 00:14:36;;;;;;;;;;;1.70;99.90;;;;;;8329144;28;19911;-61
2021/11/12 00:18:37;;;;;;;;;;;1.70;99.90;;;;;;8328728;28;19905;-62
2021/11/12 00:22:38;;;;;;;;;;;1.60;99.90;;;;;;8328770;28;19909;-62
2021/11/12 00:26:38;;;;;;;;;;;1.60;99.90;;;;;;8331044;28;20007;-64
2021/11/12 00:39:36;;;;;;;;;;;1.10;99.90;;;;;;8337528;28;19958;-65
2021/11/12 00:43:46;;;;;;;;;;;1.10;99.90;;;;;;8342532;28;20369;-64
2021/11/12 00:51:52;;;;;;;;;;;1.10;99.90;;;;;;8360655;28;19916;-64
2021/11/12 00:55:52;;;;;;;;;;;1.30;99.90;;;;;;8360804;28;20373;-64
2021/11/12 00:59:53;;;;;;;;;;;1.20;99.90;;;;;;8359344;28;19966;-66
2021/11/12 01:03:54;;;;;;;;;;;1.30;99.90;;;;;;8360507;28;19944;-66
2021/11/12 01:07:55;;;;;;;;;;;1.20;99.90;;;;;;8360629;28;19962;-66
2021/11/12 01:11:55;;;;;;;;;;;1.20;99.90;;;;;;8359559;28;19951;-66
2021/11/12 01:15:56;;;;;;;;;;;1.20;99.90;;;;;;8358936;28;19908;-66
2021/11/12 01:19:56;;;;;;;;;;;1.30;99.90;;;;;;8342118;28;19908;-66
2021/11/12 01:23:57;;;;;;;;;;;1.20;99.90;;;;;;8360097;28;20284;-66
2021/11/12 01:27:58;;;;;;;;;;;1.30;99.90;;;;;;8359900;28;19909;-66
2021/11/12 01:32:18;;;;;;;;;;;1.30;99.90;;;;;;8345465;28;19955;-66
2021/11/12 01:36:29;;;;;;;;;;;1.20;99.90;;;;;;8366857;28;19975;-65
2021/11/12 01:40:30;;;;;;;;;;;1.40;99.90;;;;;;8365732;28;20331;-65
2021/11/12 01:44:35;;;;;;;;;;;1.40;99.90;;;;;;8366311;28;19974;-66
2021/11/12 01:49:00;;;;;;;;;;;1.20;99.90;;;;;;8348528;28;19905;-66
2021/11/12 01:53:08;;;;;;;;;;;1.20;99.90;;;;;;8348570;28;20422;-66
2021/11/12 02:01:09;;;;;;;;;;;1.50;99.90;;;;;;8365883;28;19919;-66
2021/11/12 02:05:10;;;;;;;;;;;1.50;99.90;;;;;;8365900;28;20394;-66
2021/11/12 02:09:14;;;;;;;;;;;1.60;99.90;;;;;;8365438;28;20628;-65
2021/11/12 02:13:20;;;;;;;;;;;1.50;99.90;;;;;;8365122;28;19905;-66
2021/11/12 02:17:23;;;;;;;;;;;1.50;99.90;;;;;;8365565;28;19905;-66
2021/11/12 02:21:30;;;;;;;;;;;1.50;99.90;;;;;;8365188;28;20697;-66
2021/11/12 02:25:40;;;;;;;;;;;1.50;99.90;;;;;;8365204;28;19908;-66
2021/11/12 02:29:46;;;;;;;;;;;1.50;99.90;;;;;;8364801;28;19912;-66
2021/11/12 02:33:47;;;;;;;;;;;1.40;99.90;;;;;;8365101;28;19908;-66
2021/11/12 02:37:47;;;;;;;;;;;1.30;99.90;;;;;;8365027;28;19904;-66
2021/11/12 02:41:48;;;;;;;;;;;1.40;99.90;;;;;;8364099;28;19913;-66
2021/11/12 02:45:49;;;;;;;;;;;1.50;99.90;;;;;;8364324;28;19932;-65
2021/11/12 02:49:52;;;;;;;;;;;1.20;99.90;;;;;;8364307;28;19908;-65
2021/11/12 02:53:53;;;;;;;;;;;1.40;99.90;;;;;;8362426;28;20347;-66
2021/11/12 02:57:54;;;;;;;;;;;1.20;99.90;;;;;;8364457;28;19991;-67
2021/11/12 03:02:01;;;;;;;;;;;1.00;99.90;;;;;;8346028;28;19967;-66
2021/11/12 03:06:02;;;;;;;;;;;1.10;99.90;;;;;;8364122;28;19924;-66
2021/11/12 03:10:03;;;;;;;;;;;1.10;99.90;;;;;;8363625;28;19909;-65
2021/11/12 03:14:04;;;;;;;;;;;1.10;99.90;;;;;;8363134;28;19909;-66
2021/11/12 03:18:05;;;;;;;;;;;1.00;99.90;;;;;;8363864;28;19912;-66
2021/11/12 03:22:09;;;;;;;;;;;1.10;99.90;;;;;;8345208;28;19948;-65
2021/11/12 04:04:48;;;;;;;;;;;1.10;99.90;;;;;;8329093;28;19905;-65
2021/11/12 05:51:39;;;;;;;;;;;1.40;99.90;;;;;;8359694;28;20003;-64
2021/11/12 05:55:40;;;;;;;;;;;1.40;99.90;;;;;;8359255;28;19912;-64
2021/11/12 05:59:41;;;;;;;;;;;1.40;99.90;;;;;;8341644;28;19908;-65
2021/11/12 06:03:41;;;;;;;;;;;1.50;99.90;;;;;;8359829;28;19992;-65
2021/11/12 06:07:42;;;;;;;;;;;1.50;99.90;;;;;;8359819;28;19905;-65
2021/11/12 06:11:43;;;;;;;;;;;1.50;99.90;;;;;;8341743;28;19905;-64
2021/11/12 06:15:43;;;;;;;;;;;1.50;99.90;;;;;;8341383;28;20002;-64
2021/11/12 06:19:44;;;;;;;;;;;1.60;99.90;;;;;;8346101;28;19938;-65
2021/11/12 06:23:44;;;;;;;;;;;1.60;99.90;;;;;;8365657;28;20394;-64
2021/11/12 06:27:45;;;;;;;;;;;1.50;99.90;;;;;;8365406;28;20368;-64
2021/11/12 06:31:46;;;;;;;;;;;1.50;99.90;;;;;;8346932;28;20054;-64
2021/11/12 06:35:46;;;;;;;;;;;1.60;99.90;;;;;;8365356;28;19912;-64
2021/11/12 06:39:47;;;;;;;;;;;1.60;99.90;;;;;;8364538;28;20288;-64
2021/11/12 06:44:10;;;;;;;;;;;1.60;99.90;;;;;;8364538;28;20383;-64
2021/11/12 06:52:31;;;;;;;;;;;2.10;99.90;;;;;;8364780;28;20384;-65
2021/11/12 06:56:32;;;;;;;;;;;2.20;99.90;;;;;;8345416;28;20276;-64
2021/11/12 07:00:34;;;;;;;;;;;2.20;99.90;;;;;;8363477;28;19958;-64
2021/11/12 07:04:35;;;;;;;;;;;2.40;99.90;;;;;;8363901;28;19913;-64
2021/11/12 07:08:36;;;;;;;;;;;2.30;99.90;;;;;;8363891;28;19936;-64
2021/11/12 07:12:36;;;;;;;;;;;2.20;99.90;;;;;;8363354;28;19915;-65
2021/11/12 07:16:37;;;;;;;;;;;2.30;99.90;;;;;;8363806;28;19909;-64
2021/11/12 07:20:37;;;;;;;;;;;2.50;99.90;;;;;;8362890;28;19917;-64
2021/11/12 07:24:38;;;;;;;;;;;2.40;99.90;;;;;;8362498;28;20386;-64
2021/11/12 07:28:39;;;;;;;;;;;2.30;99.90;;;;;;8359734;28;19908;-64
2021/11/12 07:32:43;;;;;;;;;;;2.20;99.90;;;;;;8361259;28;19909;-64
2021/11/12 07:36:50;;;;;;;;;;;2.10;99.90;;;;;;8362265;28;19997;-64
2021/11/12 07:48:53;;;;;;;;;;;2.40;99.90;;;;;;8361068;28;19958;-64
2021/11/12 07:52:53;;;;;;;;;;;2.60;99.90;;;;;;8361994;28;19916;-64
2021/11/12 07:56:54;;;;;;;;;;;2.70;99.90;;;;;;8361471;28;19916;-64
2021/11/12 08:00:54;;;;;;;;;;;2.90;99.90;;;;;;8361449;28;19915;-64
2021/11/12 08:05:08;;;;;;;;;;;2.70;99.90;;;;;;8343314;28;19916;-64
2021/11/12 08:09:12;;;;;;;;;;;2.70;99.90;;;;;;8361115;28;20322;-64
2021/11/12 08:13:21;;;;;;;;;;;2.70;99.90;;;;;;8357980;28;19917;-65
2021/11/12 08:22:12;;;;;;;;;;;3.00;99.90;;;;;;8360509;28;19908;-65
2021/11/12 08:26:09;;;;;;;;;;;3.00;99.90;;;;;;8350481;28;19931;-64
2021/11/12 08:34:40;;;;;;;;;;;3.20;99.90;;;;;;8360630;28;19905;-64
2021/11/12 08:38:54;;;;;;;;;;;3.30;99.90;;;;;;8358879;28;20398;-68
2021/11/12 08:43:02;;;;;;;;;;;3.30;99.90;;;;;;8342375;28;19919;-68
2021/11/12 08:51:11;;;;;;;;;;;3.50;99.90;;;;;;8357665;28;19942;-64
2021/11/12 08:55:12;;;;;;;;;;;3.40;99.90;;;;;;8359747;28;19916;-64
2021/11/12 08:59:13;;;;;;;;;;;3.40;99.90;;;;;;8358946;28;19908;-63
2021/11/12 09:03:13;;;;;;;;;;;3.60;99.90;;;;;;8353682;28;20273;-63
2021/11/12 09:07:15;;;;;;;;;;;3.50;99.90;;;;;;8358894;28;19962;-64
2021/11/12 09:11:17;;;;;;;;;;;3.40;99.90;;;;;;8358061;28;20269;-64
2021/11/12 09:15:31;;;;;;;;;;;3.50;99.90;;;;;;8358985;28;20368;-63
2021/11/12 09:19:32;;;;;;;;;;;3.80;99.90;;;;;;8355663;28;19913;-63
2021/11/12 09:23:33;;;;;;;;;;;3.90;99.90;;;;;;8359059;28;19908;-64
2021/11/12 09:27:33;;;;;;;;;;;4.10;99.90;;;;;;8359088;28;19915;-64
2021/11/12 09:31:34;;;;;;;;;;;4.30;99.90;;;;;;8358303;28;20195;-63
2021/11/12 09:35:35;;;;;;;;;;;3.90;99.90;;;;;;8358529;28;19916;-64
2021/11/12 09:39:36;;;;;;;;;;;4.10;99.90;;;;;;8358950;28;19950;-64
2021/11/12 09:43:37;;;;;;;;;;;3.90;99.90;;;;;;8341041;28;19971;-64
2021/11/12 09:47:38;;;;;;;;;;;4.00;99.90;;;;;;8357966;28;19951;-64
2021/11/12 09:51:39;;;;;;;;;;;4.40;99.90;;;;;;8359947;28;19912;-63
2021/11/12 09:55:40;;;;;;;;;;;4.70;99.90;;;;;;8345879;28;19956;-63
2021/11/12 09:59:46;;;;;;;;;;;4.90;99.90;;;;;;8363911;28;19909;-64
2021/11/12 10:03:47;;;;;;;;;;;5.10;99.90;;;;;;8365389;28;20003;-64
2021/11/12 10:07:47;;;;;;;;;;;5.00;99.90;;;;;;8363399;28;19955;-64
2021/11/12 10:11:53;;;;;;;;;;;4.80;99.90;;;;;;8363869;28;20291;-64
2021/11/12 10:15:59;;;;;;;;;;;4.80;99.90;;;;;;8362504;28;19940;-64
2021/11/12 10:20:02;;;;;;;;;;;5.00;99.90;;;;;;8345973;28;20011;-64
2021/11/12 10:24:05;;;;;;;;;;;5.30;99.90;;;;;;8364027;28;19904;-63
2021/11/12 10:28:06;;;;;;;;;;;5.40;99.90;;;;;;8364242;28;20305;-63
2021/11/12 10:32:08;;;;;;;;;;;5.50;99.90;;;;;;8363241;28;19912;-63
2021/11/12 10:36:09;;;;;;;;;;;5.40;99.90;;;;;;8364390;28;19904;-64
2021/11/12 10:40:11;;;;;;;;;;;5.40;99.90;;;;;;8360475;28;19916;-63
2021/11/12 10:44:15;;;;;;;;;;;5.60;99.90;;;;;;8362731;28;19991;-64
2021/11/12 10:48:26;;;;;;;;;;;5.50;99.90;;;;;;8363923;28;19912;-64
2021/11/12 10:52:28;;;;;;;;;;;5.70;99.90;;;;;;8363152;28;19913;-64
2021/11/12 10:56:46;;;;;;;;;;;5.80;99.90;;;;;;8362473;28;19912;-64
2021/11/12 11:00:48;;;;;;;;;;;5.90;99.90;;;;;;8363252;28;19917;-64
2021/11/12 11:04:48;;;;;;;;;;;6.20;99.90;;;;;;8362777;28;19905;-64
2021/11/12 11:08:51;;;;;;;;;;;6.00;99.90;;;;;;8362690;28;19908;-63
2021/11/12 11:12:52;;;;;;;;;;;5.60;99.90;;;;;;8362319;28;19940;-64
2021/11/12 11:16:53;;;;;;;;;;;5.80;99.90;;;;;;8362885;28;19908;-63
2021/11/12 11:20:59;;;;;;;;;;;5.80;99.90;;;;;;8362459;28;20035;-64
2021/11/12 11:24:59;;;;;;;;;;;6.00;99.90;;;;;;8361099;28;20058;-64
2021/11/12 11:29:01;;;;;;;;;;;5.90;99.90;;;;;;8362263;28;19908;-64
2021/11/12 11:33:01;;;;;;;;;;;6.20;99.90;;;;;;8362310;28;19915;-63
2021/11/12 11:37:03;;;;;;;;;;;6.00;99.90;;;;;;8362409;28;20359;-64
2021/11/12 11:41:04;;;;;;;;;;;6.00;99.90;;;;;;8361509;28;19919;-64
2021/11/12 11:45:05;;;;;;;;;;;5.80;99.90;;;;;;8362179;28;19966;-64
2021/11/12 11:49:10;;;;;;;;;;;5.70;99.90;;;;;;8380462;22;20292;-65
2021/11/12 11:53:21;;;;;;;;;;;5.50;99.90;;;;;;8426642;28;19930;-65
2021/11/12 11:57:23;;;;;;;;;;;5.60;99.90;;;;;;8427784;28;19930;-65
2021/11/12 12:01:27;;;;;;;;;;;5.80;99.90;;;;;;8428786;28;19908;-65
2021/11/12 12:05:28;;;;;;;;;;;6.00;99.90;;;;;;8428805;28;19911;-65
2021/11/12 12:09:48;;;;;;;;;;;6.30;99.90;;;;;;8412206;28;19908;-65
2021/11/12 12:14:08;;;;;;;;;;;6.20;99.90;;;;;;8411092;28;19995;-60
2021/11/12 12:18:10;;;;;;;;;;;6.40;99.90;;;;;;8406195;28;20288;-60
2021/11/12 12:30:51;;;;;;;;;;;6.40;99.90;;;;;;8393817;28;19916;-60
2021/11/12 12:35:53;;;;;;;;;;;6.30;99.90;;;;;;8404924;28;20260;-60
2021/11/12 13:23:44;;;;;;;;;;;6.30;99.90;;;;;;8400187;28;19912;-61
2021/11/12 13:27:45;;;;;;;;;;;6.30;99.90;;;;;;8385295;28;19904;-60
2021/11/12 13:31:45;;;;;;;;;;;6.40;99.90;;;;;;8410809;28;19916;-60
2021/11/12 13:35:46;;;;;;;;;;;6.40;99.90;;;;;;8415525;28;20041;-60
2021/11/12 13:40:00;;;;;;;;;;;6.40;99.90;;;;;;8385108;28;19912;-60
2021/11/12 13:44:02;;;;;;;;;;;6.50;99.90;;;;;;8415227;28;20463;-60
2021/11/12 13:48:11;;;;;;;;;;;6.40;99.90;;;;;;8395792;28;19908;-60
2021/11/12 13:52:23;;;;;;;;;;;6.30;99.90;;;;;;8405711;28;19944;-61
2021/11/12 13:56:24;;;;;;;;;;;6.40;99.90;;;;;;8395424;28;19916;-60
2021/11/12 14:00:28;;;;;;;;;;;6.20;99.90;;;;;;8402928;28;19981;-60
2021/11/12 14:04:30;;;;;;;;;;;6.00;99.90;;;;;;8406627;28;19911;-60
2021/11/12 14:08:32;;;;;;;;;;;5.80;99.90;;;;;;8409983;28;20125;-61
2021/11/12 14:12:33;;;;;;;;;;;5.80;99.90;;;;;;8407595;28;19954;-60
2021/11/12 14:16:38;;;;;;;;;;;5.70;99.90;;;;;;8407139;28;19908;-60
2021/11/12 14:20:41;;;;;;;;;;;5.80;99.90;;;;;;8409000;28;20383;-60
2021/11/12 14:29:05;;;;;;;;;;;5.80;99.90;;;;;;8412049;28;19908;-60
2021/11/12 14:33:17;;;;;;;;;;;5.80;99.90;;;;;;8388578;28;19911;-60
2021/11/12 14:37:35;;;;;;;;;;;5.60;99.90;;;;;;8403598;28;20316;-60
2021/11/12 14:46:19;;;;;;;;;;;5.40;99.90;;;;;;8414897;28;19971;-59
2021/11/12 14:50:44;;;;;;;;;;;5.60;99.90;;;;;;8387175;28;19927;-59
2021/11/12 14:54:52;;;;;;;;;;;5.50;99.90;;;;;;8402930;28;19969;-59
2021/11/12 14:58:59;;;;;;;;;;;5.50;99.90;;;;;;8402363;28;20380;-60
2021/11/12 15:03:00;;;;;;;;;;;5.50;99.90;;;;;;8388880;28;20022;-60
2021/11/12 15:07:00;;;;;;;;;;;5.30;99.90;;;;;;8409041;28;19908;-60
2021/11/12 15:11:03;;;;;;;;;;;5.30;99.90;;;;;;8402820;28;19909;-60
2021/11/12 15:15:04;;;;;;;;;;;5.30;99.90;;;;;;8403273;28;19904;-60
2021/11/12 15:19:06;;;;;;;;;;;5.20;99.90;;;;;;8387039;28;19908;-60
2021/11/12 15:23:32;;;;;;;;;;;5.00;99.90;;;;;;8402570;28;20382;-60
2021/11/12 15:27:50;;;;;;;;;;;5.10;99.90;;;;;;8408566;28;19908;-60
2021/11/12 15:35:56;;;;;;;;;;;4.90;99.90;;;;;;8409194;28;19905;-60
2021/11/12 15:40:15;;;;;;;;;;;4.90;99.90;;;;;;8411101;28;19912;-59
2021/11/12 15:48:24;;;;;;;;;;;4.70;99.90;;;;;;8410601;28;19919;-59
2021/11/12 15:52:32;;;;;;;;;;;4.80;99.90;;;;;;8407798;28;20302;-60
2021/11/12 16:01:20;;;;;;;;;;;4.70;99.90;;;;;;8405765;28;19908;-59
2021/11/12 16:18:32;;;;;;;;;;;4.50;99.90;;;;;;8411423;28;19913;-60
2021/11/12 16:26:30;;;;;;;;;;;4.40;99.90;;;;;;8404759;28;20348;-60
2021/11/12 16:30:35;;;;;;;;;;;4.30;99.90;;;;;;8406477;28;19951;-60
2021/11/12 16:34:42;;;;;;;;;;;4.30;99.90;;;;;;8409886;28;20356;-60
2021/11/12 16:38:43;;;;;;;;;;;4.30;99.90;;;;;;8409614;28;19903;-58
2021/11/12 16:43:01;;;;;;;;;;;4.30;99.90;;;;;;8408278;28;20364;-60
2021/11/12 17:50:38;;;;;;;;;;;4.10;99.90;;;;;;8400994;22;19927;-63
2021/11/12 18:03:39;;;;;;;;;;;4.00;99.90;;;;;;8357181;28;19924;-64
2021/11/12 18:08:14;;;;;;;;;;;4.20;99.90;;;;;;8357510;28;19912;-63
2021/11/12 18:17:09;;;;;;;;;;;4.10;99.90;;;;;;8363637;28;19912;-63
2021/11/12 21:47:16;;;;;;;;;;;2.80;99.90;;;;;;8325484;28;20360;-62
2021/11/12 21:51:24;;;;;;;;;;;2.70;99.90;;;;;;8332421;28;19917;-63
2021/11/12 21:55:25;;;;;;;;;;;2.90;99.90;;;;;;8332654;28;19905;-63
2021/11/12 21:59:26;;;;;;;;;;;3.00;99.90;;;;;;8373823;28;20008;-62
2021/11/12 22:03:28;;;;;;;;;;;2.90;99.90;;;;;;8366017;28;19908;-63
2021/11/12 22:07:28;;;;;;;;;;;2.90;99.90;;;;;;8366069;28;19911;-63
2021/11/12 22:11:29;;;;;;;;;;;2.90;99.90;;;;;;8366411;28;20288;-62
2021/11/12 22:15:29;;;;;;;;;;;2.90;99.90;;;;;;8365918;28;19913;-63
2021/11/12 22:19:30;;;;;;;;;;;2.70;99.90;;;;;;8366074;28;19905;-63
2021/11/12 22:23:30;;;;;;;;;;;2.90;99.90;;;;;;8365512;28;19913;-63
2021/11/12 22:27:31;;;;;;;;;;;3.00;99.90;;;;;;8365446;28;19999;-62
2021/11/12 22:31:32;;;;;;;;;;;2.90;99.90;;;;;;8365231;28;20383;-62
2021/11/12 22:35:33;;;;;;;;;;;3.00;99.90;;;;;;8364120;28;19978;-63
2021/11/12 22:39:33;;;;;;;;;;;3.00;99.90;;;;;;8364891;28;19909;-63
2021/11/12 22:43:35;;;;;;;;;;;3.00;99.90;;;;;;8364720;28;19916;-62
2021/11/12 22:47:36;;;;;;;;;;;2.90;99.90;;;;;;8364809;28;19904;-63
2021/11/12 22:51:37;;;;;;;;;;;3.00;99.90;;;;;;8364453;28;19913;-62
2021/11/12 22:55:38;;;;;;;;;;;2.90;99.90;;;;;;8364375;28;19905;-63
2021/11/12 22:59:38;;;;;;;;;;;2.90;99.90;;;;;;8362044;28;20430;-63
2021/11/12 23:03:39;;;;;;;;;;;2.80;99.90;;;;;;8363065;28;19963;-63
2021/11/12 23:07:40;;;;;;;;;;;2.80;99.90;;;;;;8364275;28;19908;-63
2021/11/12 23:11:40;;;;;;;;;;;2.90;99.90;;;;;;8364018;28;20416;-62
2021/11/12 23:15:41;;;;;;;;;;;3.00;99.90;;;;;;8363659;28;19905;-62
2021/11/12 23:19:41;;;;;;;;;;;2.90;99.90;;;;;;8345800;28;19996;-62
2021/11/12 23:23:44;;;;;;;;;;;3.00;99.90;;;;;;8363729;28;19908;-62
2021/11/12 23:27:45;;;;;;;;;;;2.80;99.90;;;;;;8363572;28;19968;-63
2021/11/12 23:31:46;;;;;;;;;;;2.90;99.90;;;;;;8345476;28;19909;-63
2021/11/12 23:35:46;;;;;;;;;;;2.90;99.90;;;;;;8363627;28;20004;-63
2021/11/12 23:39:46;;;;;;;;;;;2.90;99.90;;;;;;8363092;28;19991;-63
2021/11/12 23:43:47;;;;;;;;;;;3.00;99.90;;;;;;8363005;28;19909;-63
2021/11/12 23:47:48;;;;;;;;;;;2.90;99.90;;;;;;8345133;28;20296;-62
2021/11/12 23:51:49;;;;;;;;;;;3.00;99.90;;;;;;8388037;22;19921;-60
2021/11/12 23:55:49;;;;;;;;;;;2.90;99.90;;;;;;8362331;28;19911;-60
2021/11/12 23:59:50;;;;;;;;;;;2.90;99.90;;;;;;8362458;28;19928;-59
